createdAt,value
2018-05-27T00:00:05.784Z,70.60
2018-05-27T00:01:09.108Z,70.60
2018-05-27T00:02:05.742Z,70.50
2018-05-27T00:03:05.747Z,70.40
2018-05-27T00:04:09.039Z,69.70
2018-05-27T00:05:05.943Z,69.60
2018-05-27T00:06:05.699Z,69.80
2018-05-27T00:07:06.324Z,70.00
2018-05-27T00:08:11.010Z,69.50
2018-05-27T00:09:10.706Z,69.40
2018-05-27T00:10:06.182Z,69.40
2018-05-27T00:11:06.029Z,69.20
2018-05-27T00:12:08.326Z,68.90
2018-05-27T00:13:05.962Z,68.90
2018-05-27T00:14:08.284Z,69.30
2018-05-27T00:15:08.168Z,69.00
2018-05-27T00:16:06.031Z,69.00
2018-05-27T00:17:08.298Z,69.60
2018-05-27T00:18:06.340Z,69.50
2018-05-27T00:19:06.150Z,70.40
2018-05-27T00:20:08.412Z,70.40
2018-05-27T00:21:11.383Z,70.00
2018-05-27T00:22:05.879Z,70.00
2018-05-27T00:23:10.543Z,70.20
2018-05-27T00:24:11.081Z,70.20
2018-05-27T00:25:06.278Z,70.10
2018-05-27T00:26:06.213Z,69.90
2018-05-27T00:27:08.503Z,69.50
2018-05-27T00:28:06.229Z,69.60
2018-05-27T00:29:05.960Z,69.30
2018-05-27T00:30:06.146Z,69.40
2018-05-27T00:31:05.926Z,70.50
2018-05-27T00:32:05.843Z,70.40
2018-05-27T00:33:08.035Z,70.30
2018-05-27T00:34:06.322Z,70.40
2018-05-27T00:35:10.986Z,70.40
2018-05-27T00:36:05.605Z,70.20
2018-05-27T00:37:08.936Z,70.30
2018-05-27T00:38:05.897Z,70.30
2018-05-27T00:39:09.299Z,70.70
2018-05-27T00:40:06.093Z,70.70
2018-05-27T00:41:05.864Z,71.10
2018-05-27T00:42:09.086Z,71.10
2018-05-27T00:43:08.219Z,71.20
2018-05-27T00:44:08.435Z,70.90
2018-05-27T00:45:05.867Z,70.90
2018-05-27T00:46:07.978Z,70.70
2018-05-27T00:47:05.501Z,70.70
2018-05-27T00:48:06.395Z,70.40
2018-05-27T00:49:08.742Z,70.10
2018-05-27T00:50:10.576Z,70.40
2018-05-27T00:51:06.222Z,70.40
2018-05-27T00:52:06.411Z,70.40
2018-05-27T00:53:06.107Z,70.30
2018-05-27T00:54:08.346Z,70.30
2018-05-27T00:55:06.232Z,70.30
2018-05-27T00:56:05.885Z,70.70
2018-05-27T00:57:08.077Z,71.80
2018-05-27T00:58:05.717Z,71.80
2018-05-27T00:59:06.476Z,72.80
2018-05-27T01:00:11.400Z,72.00
2018-05-27T01:01:06.006Z,72.00
2018-05-27T01:02:06.793Z,71.80
2018-05-27T01:03:10.556Z,71.70
2018-05-27T01:04:06.018Z,71.70
2018-05-27T01:05:05.596Z,71.70
2018-05-27T01:06:11.355Z,72.30
2018-05-27T01:07:16.250Z,71.80
2018-05-27T01:08:10.851Z,71.70
2018-05-27T01:09:06.305Z,71.80
2018-05-27T01:10:06.318Z,71.90
2018-05-27T01:11:06.453Z,71.80
2018-05-27T01:12:08.667Z,71.80
2018-05-27T01:13:11.313Z,71.80
2018-05-27T01:14:08.459Z,71.90
2018-05-27T01:15:08.625Z,73.00
2018-05-27T01:16:06.276Z,60.20
2018-05-27T01:17:06.076Z,73.20
2018-05-27T01:18:08.379Z,73.30
2018-05-27T01:19:13.549Z,74.40
2018-05-27T01:20:08.573Z,74.30
2018-05-27T01:21:08.607Z,74.00
2018-05-27T01:22:06.604Z,74.00
2018-05-27T01:23:06.234Z,73.80
2018-05-27T01:24:05.787Z,73.70
2018-05-27T01:25:06.011Z,73.80
2018-05-27T01:26:05.995Z,74.20
2018-05-27T01:27:05.666Z,75.00
2018-05-27T01:28:06.382Z,74.70
2018-05-27T01:29:06.380Z,75.60
2018-05-27T01:30:06.648Z,75.30
2018-05-27T01:31:08.847Z,75.50
2018-05-27T01:32:08.919Z,75.30
2018-05-27T01:33:06.476Z,75.30
2018-05-27T01:34:06.183Z,75.80
2018-05-27T01:35:05.942Z,75.30
2018-05-27T01:36:05.671Z,75.20
2018-05-27T01:37:07.005Z,75.50
2018-05-27T01:38:08.200Z,75.20
2018-05-27T01:39:05.899Z,75.20
2018-05-27T01:40:08.236Z,75.50
2018-05-27T01:41:08.253Z,75.80
2018-05-27T01:42:05.808Z,75.80
2018-05-27T01:43:09.160Z,75.30
2018-05-27T01:44:06.001Z,75.30
2018-05-27T01:45:06.152Z,76.10
2018-05-27T01:46:06.003Z,77.20
2018-05-27T01:47:08.875Z,76.70
2018-05-27T01:48:06.511Z,76.70
2018-05-27T01:49:11.305Z,76.50
2018-05-27T01:50:06.285Z,76.20
2018-05-27T01:51:08.687Z,76.10
2018-05-27T01:52:06.181Z,76.10
2018-05-27T01:53:05.829Z,75.80
2018-05-27T01:54:06.435Z,75.90
2018-05-27T01:55:11.144Z,76.50
2018-05-27T01:56:09.153Z,76.30
2018-05-27T01:57:05.991Z,76.30
2018-05-27T01:58:05.620Z,76.00
2018-05-27T01:59:06.529Z,76.30
2018-05-27T02:00:06.778Z,76.80
2018-05-27T02:01:11.588Z,77.40
2018-05-27T02:02:06.424Z,77.90
2018-05-27T02:03:11.505Z,78.10
2018-05-27T02:04:06.130Z,78.20
2018-05-27T02:05:06.140Z,78.50
2018-05-27T02:06:06.480Z,78.40
2018-05-27T02:07:06.678Z,78.30
2018-05-27T02:08:09.015Z,77.70
2018-05-27T02:09:05.505Z,77.70
2018-05-27T02:10:11.226Z,77.30
2018-05-27T02:11:08.349Z,77.10
2018-05-27T02:12:05.966Z,77.00
2018-05-27T02:13:08.187Z,76.80
2018-05-27T02:14:05.899Z,76.80
2018-05-27T02:15:08.047Z,77.10
2018-05-27T02:16:08.211Z,76.90
2018-05-27T02:17:08.273Z,76.80
2018-05-27T02:18:05.801Z,76.80
2018-05-27T02:19:07.943Z,76.80
2018-05-27T02:20:06.891Z,76.80
2018-05-27T02:21:05.514Z,77.00
2018-05-27T02:22:08.705Z,77.00
2018-05-27T02:23:08.876Z,77.60
2018-05-27T02:24:06.437Z,77.70
2018-05-27T02:25:06.312Z,77.90
2018-05-27T02:26:10.922Z,77.70
2018-05-27T02:27:11.908Z,77.70
2018-05-27T02:28:09.048Z,78.50
2018-05-27T02:29:08.125Z,78.00
2018-05-27T02:30:05.801Z,78.00
2018-05-27T02:31:06.768Z,78.20
2018-05-27T02:32:09.037Z,78.10
2018-05-27T02:33:08.244Z,78.00
2018-05-27T02:34:10.822Z,78.00
2018-05-27T02:35:06.377Z,77.80
2018-05-27T02:36:11.210Z,77.50
2018-05-27T02:37:09.021Z,77.40
2018-05-27T02:38:05.855Z,77.40
2018-05-27T02:39:10.519Z,77.20
2018-05-27T02:40:05.932Z,77.20
2018-05-27T02:41:10.570Z,77.10
2018-05-27T02:42:06.445Z,77.00
2018-05-27T02:43:11.138Z,77.00
2018-05-27T02:44:06.183Z,77.00
2018-05-27T02:45:08.296Z,77.20
2018-05-27T02:46:05.787Z,77.20
2018-05-27T02:47:05.606Z,77.70
2018-05-27T02:48:06.680Z,77.50
2018-05-27T02:49:10.475Z,77.60
2018-05-27T02:50:06.300Z,77.40
2018-05-27T02:51:06.434Z,77.80
2018-05-27T02:52:06.212Z,77.60
2018-05-27T02:53:06.004Z,77.50
2018-05-27T02:54:08.313Z,77.70
2018-05-27T02:55:06.000Z,77.80
2018-05-27T02:56:08.110Z,78.50
2018-05-27T02:57:05.899Z,78.50
2018-05-27T02:58:05.657Z,78.70
2018-05-27T02:59:08.848Z,78.20
2018-05-27T03:00:06.359Z,78.20
2018-05-27T03:01:06.209Z,78.00
2018-05-27T03:02:06.031Z,78.00
2018-05-27T03:03:05.709Z,78.50
2018-05-27T03:04:06.700Z,78.50
2018-05-27T03:05:06.576Z,78.20
2018-05-27T03:06:11.209Z,78.00
2018-05-27T03:07:05.788Z,78.00
2018-05-27T03:08:06.445Z,78.10
2018-05-27T03:09:06.469Z,78.00
2018-05-27T03:10:06.690Z,78.10
2018-05-27T03:11:06.437Z,78.20
2018-05-27T03:12:11.335Z,78.20
2018-05-27T03:13:05.771Z,78.30
2018-05-27T03:14:05.653Z,78.40
2018-05-27T03:15:06.368Z,78.30
2018-05-27T03:16:06.055Z,78.20
2018-05-27T03:17:06.160Z,78.20
2018-05-27T03:18:08.373Z,78.00
2018-05-27T03:19:06.464Z,78.00
2018-05-27T03:20:05.709Z,77.70
2018-05-27T03:21:06.394Z,77.70
2018-05-27T03:22:09.023Z,77.90
2018-05-27T03:23:05.636Z,77.90
2018-05-27T03:24:08.928Z,78.20
2018-05-27T03:25:05.530Z,78.20
2018-05-27T03:26:06.102Z,78.10
2018-05-27T03:27:06.048Z,78.20
2018-05-27T03:28:06.285Z,78.40
2018-05-27T03:29:05.878Z,78.20
2018-05-27T03:30:06.353Z,78.10
2018-05-27T03:31:06.117Z,78.30
2018-05-27T03:32:05.633Z,78.30
2018-05-27T03:33:08.889Z,78.50
2018-05-27T03:34:06.082Z,78.50
2018-05-27T03:35:10.784Z,78.40
2018-05-27T03:36:06.692Z,78.40
2018-05-27T03:37:08.864Z,78.10
2018-05-27T03:38:06.601Z,78.00
2018-05-27T03:39:06.348Z,78.00
2018-05-27T03:40:06.445Z,78.00
2018-05-27T03:41:11.114Z,78.70
2018-05-27T03:42:10.839Z,78.70
2018-05-27T03:43:08.833Z,79.10
2018-05-27T03:44:06.599Z,79.20
2018-05-27T03:45:08.670Z,78.90
2018-05-27T03:46:06.312Z,78.90
2018-05-27T03:47:06.495Z,78.70
2018-05-27T03:48:06.388Z,79.00
2018-05-27T03:49:06.003Z,78.90
2018-05-27T03:50:08.234Z,79.00
2018-05-27T03:51:05.867Z,79.00
2018-05-27T03:52:05.817Z,78.90
2018-05-27T03:53:06.124Z,79.10
2018-05-27T03:54:06.116Z,79.00
2018-05-27T03:55:08.445Z,79.20
2018-05-27T03:56:08.527Z,79.00
2018-05-27T03:57:11.248Z,79.00
2018-05-27T03:58:11.540Z,78.70
2018-05-27T03:59:05.926Z,78.60
2018-05-27T04:00:05.745Z,78.60
2018-05-27T04:01:05.876Z,78.50
2018-05-27T04:02:10.738Z,78.20
2018-05-27T04:03:08.694Z,78.20
2018-05-27T04:04:06.310Z,78.20
2018-05-27T04:05:06.095Z,78.40
2018-05-27T04:06:05.910Z,78.40
2018-05-27T04:07:10.646Z,78.30
2018-05-27T04:08:06.701Z,78.30
2018-05-27T04:09:07.505Z,78.40
2018-05-27T04:10:06.066Z,78.50
2018-05-27T04:11:06.798Z,78.60
2018-05-27T04:12:06.588Z,79.00
2018-05-27T04:13:08.774Z,78.70
2018-05-27T04:14:11.279Z,78.70
2018-05-27T04:15:06.137Z,78.80
2018-05-27T04:16:10.929Z,53.10
2018-05-27T04:17:06.718Z,78.60
2018-05-27T04:18:06.500Z,78.50
2018-05-27T04:19:11.253Z,78.50
2018-05-27T04:20:05.994Z,78.50
2018-05-27T04:21:05.920Z,78.70
2018-05-27T04:22:05.612Z,79.00
2018-05-27T04:23:06.352Z,79.00
2018-05-27T04:24:08.770Z,78.80
2018-05-27T04:25:10.773Z,78.80
2018-05-27T04:26:05.533Z,78.80
2018-05-27T04:27:08.633Z,79.10
2018-05-27T04:28:11.255Z,78.80
2018-05-27T04:29:11.070Z,78.80
2018-05-27T04:30:06.675Z,78.80
2018-05-27T04:31:08.794Z,79.00
2018-05-27T04:32:08.914Z,78.80
2018-05-27T04:33:06.430Z,78.80
2018-05-27T04:34:06.573Z,78.80
2018-05-27T04:35:08.684Z,78.60
2018-05-27T04:36:06.323Z,78.60
2018-05-27T04:37:06.449Z,78.50
2018-05-27T04:38:11.423Z,78.50
2018-05-27T04:39:06.469Z,78.40
2018-05-27T04:40:14.100Z,78.30
2018-05-27T04:41:06.352Z,78.30
2018-05-27T04:42:05.924Z,78.20
2018-05-27T04:43:08.313Z,78.40
2018-05-27T04:44:06.312Z,78.40
2018-05-27T04:45:06.489Z,78.30
2018-05-27T04:46:05.503Z,78.30
2018-05-27T04:47:06.815Z,78.30
2018-05-27T04:48:05.927Z,78.10
2018-05-27T04:49:07.377Z,78.10
2018-05-27T04:50:08.657Z,78.10
2018-05-27T04:51:06.930Z,78.10
2018-05-27T04:52:05.609Z,78.20
2018-05-27T04:53:11.390Z,78.30
2018-05-27T04:54:07.002Z,78.30
2018-05-27T04:55:05.674Z,78.30
2018-05-27T04:56:11.321Z,78.40
2018-05-27T04:57:05.801Z,78.30
2018-05-27T04:58:08.626Z,78.50
2018-05-27T04:59:13.905Z,78.50
2018-05-27T05:00:06.852Z,78.50
2018-05-27T05:01:05.585Z,78.50
2018-05-27T05:02:06.464Z,78.40
2018-05-27T05:03:06.570Z,78.40
2018-05-27T05:04:06.244Z,78.20
2018-05-27T05:05:08.445Z,78.10
2018-05-27T05:06:06.192Z,78.20
2018-05-27T05:07:08.327Z,78.30
2018-05-27T05:08:10.835Z,78.20
2018-05-27T05:09:09.149Z,78.20
2018-05-27T05:10:06.258Z,78.20
2018-05-27T05:11:08.394Z,78.20
2018-05-27T05:12:06.142Z,78.20
2018-05-27T05:13:06.213Z,78.10
2018-05-27T05:14:06.050Z,78.00
2018-05-27T05:15:05.693Z,78.00
2018-05-27T05:16:10.717Z,78.00
2018-05-27T05:17:08.755Z,78.10
2018-05-27T05:18:06.247Z,78.10
2018-05-27T05:19:08.336Z,78.20
2018-05-27T05:20:06.042Z,78.30
2018-05-27T05:21:06.265Z,78.40
2018-05-27T05:22:06.361Z,78.40
2018-05-27T05:23:05.754Z,78.50
2018-05-27T05:24:06.923Z,78.50
2018-05-27T05:25:08.316Z,78.60
2018-05-27T05:26:05.873Z,78.60
2018-05-27T05:27:08.879Z,78.60
2018-05-27T05:28:06.364Z,78.60
2018-05-27T05:29:12.223Z,78.70
2018-05-27T05:30:08.379Z,78.80
2018-05-27T05:31:06.227Z,78.80
2018-05-27T05:32:08.508Z,78.80
2018-05-27T05:33:08.590Z,78.70
2018-05-27T05:34:08.761Z,78.60
2018-05-27T05:35:06.662Z,78.70
2018-05-27T05:36:05.721Z,78.70
2018-05-27T05:37:06.333Z,78.70
2018-05-27T05:38:06.249Z,78.60
2018-05-27T05:39:06.061Z,78.70
2018-05-27T05:40:05.559Z,78.60
2018-05-27T05:41:08.669Z,78.30
2018-05-27T05:42:06.771Z,78.30
2018-05-27T05:43:05.956Z,78.40
2018-05-27T05:44:11.042Z,78.40
2018-05-27T05:45:10.777Z,78.20
2018-05-27T05:46:08.544Z,78.10
2018-05-27T05:47:12.144Z,78.10
2018-05-27T05:48:08.302Z,78.10
2018-05-27T05:49:10.954Z,78.10
2018-05-27T05:50:08.947Z,78.10
2018-05-27T05:51:11.574Z,78.10
2018-05-27T05:52:08.604Z,77.90
2018-05-27T05:53:06.272Z,77.90
2018-05-27T05:54:05.979Z,77.90
2018-05-27T05:55:05.536Z,77.90
2018-05-27T05:56:06.280Z,77.70
2018-05-27T05:57:08.561Z,77.60
2018-05-27T05:58:06.019Z,77.40
2018-05-27T05:59:08.428Z,77.50
2018-05-27T06:00:06.375Z,77.50
2018-05-27T06:01:06.637Z,77.50
2018-05-27T06:02:06.603Z,77.60
2018-05-27T06:03:06.026Z,77.50
2018-05-27T06:04:05.706Z,77.40
2018-05-27T06:05:10.713Z,76.90
2018-05-27T06:06:08.847Z,76.80
2018-05-27T06:07:06.313Z,76.80
2018-05-27T06:08:08.063Z,76.40
2018-05-27T06:09:05.583Z,76.30
2018-05-27T06:10:08.708Z,76.20
2018-05-27T06:11:08.805Z,76.10
2018-05-27T06:12:11.510Z,75.90
2018-05-27T06:13:06.411Z,75.90
2018-05-27T06:14:11.027Z,75.90
2018-05-27T06:15:06.323Z,75.80
2018-05-27T06:16:06.377Z,75.50
2018-05-27T06:17:08.534Z,75.30
2018-05-27T06:18:06.026Z,75.30
2018-05-27T06:19:08.337Z,75.10
2018-05-27T06:20:08.583Z,75.10
2018-05-27T06:21:08.723Z,75.20
2018-05-27T06:22:08.901Z,75.60
2018-05-27T06:23:06.894Z,75.60
2018-05-27T06:24:08.027Z,76.10
2018-05-27T06:25:05.528Z,76.10
2018-05-27T06:26:06.853Z,75.80
2018-05-27T06:27:06.838Z,75.40
2018-05-27T06:28:11.714Z,74.60
2018-05-27T06:29:06.372Z,74.50
2018-05-27T06:30:08.725Z,73.00
2018-05-27T06:31:06.217Z,73.00
2018-05-27T06:32:10.972Z,71.70
2018-05-27T06:33:06.238Z,71.70
2018-05-27T06:34:08.489Z,69.30
2018-05-27T06:35:05.501Z,69.30
2018-05-27T06:36:08.026Z,67.30
2018-05-27T06:37:05.653Z,67.20
2018-05-27T06:38:06.347Z,66.10
2018-05-27T06:39:06.091Z,64.80
2018-05-27T06:40:05.840Z,64.30
2018-05-27T06:41:06.668Z,63.30
2018-05-27T06:42:08.864Z,61.40
2018-05-27T06:43:11.399Z,60.90
2018-05-27T06:44:11.001Z,59.80
2018-05-27T06:45:05.529Z,59.90
2018-05-27T06:46:08.714Z,59.30
2018-05-27T06:47:06.406Z,59.30
2018-05-27T06:48:06.322Z,59.50
2018-05-27T06:49:06.340Z,59.40
2018-05-27T06:50:05.920Z,59.40
2018-05-27T06:51:05.901Z,58.90
2018-05-27T06:52:05.449Z,59.10
2018-05-27T06:53:06.102Z,59.30
2018-05-27T06:54:06.260Z,59.30
2018-05-27T06:55:08.629Z,59.30
2018-05-27T06:56:06.139Z,59.30
2018-05-27T06:57:05.821Z,59.20
2018-05-27T06:58:06.627Z,59.20
2018-05-27T06:59:06.669Z,59.10
2018-05-27T07:00:09.971Z,59.10
2018-05-27T07:01:05.973Z,59.10
2018-05-27T07:02:06.123Z,58.90
2018-05-27T07:03:06.274Z,58.90
2018-05-27T07:04:06.249Z,58.30
2018-05-27T07:05:05.893Z,57.70
2018-05-27T07:06:05.651Z,58.00
2018-05-27T07:07:06.764Z,58.40
2018-05-27T07:08:09.052Z,59.00
2018-05-27T07:09:05.986Z,59.00
2018-05-27T07:10:05.431Z,59.30
2018-05-27T07:11:05.953Z,59.20
2018-05-27T07:12:08.108Z,59.30
2018-05-27T07:13:05.577Z,59.30
2018-05-27T07:14:06.759Z,59.20
2018-05-27T07:15:06.427Z,58.80
2018-05-27T07:16:08.659Z,59.10
2018-05-27T07:17:06.654Z,59.10
2018-05-27T07:18:07.348Z,59.10
2018-05-27T07:19:06.424Z,59.00
2018-05-27T07:20:11.204Z,59.30
2018-05-27T07:21:05.641Z,59.30
2018-05-27T07:22:05.514Z,59.10
2018-05-27T07:23:08.280Z,57.90
2018-05-27T07:24:13.408Z,57.70
2018-05-27T07:25:06.159Z,57.70
2018-05-27T07:26:06.083Z,57.50
2018-05-27T07:27:09.019Z,56.60
2018-05-27T07:28:13.277Z,55.20
2018-05-27T07:29:08.563Z,55.50
2018-05-27T07:30:06.400Z,55.50
2018-05-27T07:31:10.997Z,55.40
2018-05-27T07:32:05.565Z,55.70
2018-05-27T07:33:08.729Z,55.90
2018-05-27T07:34:10.764Z,55.90
2018-05-27T07:35:06.688Z,55.20
2018-05-27T07:36:06.655Z,55.20
2018-05-27T07:37:06.370Z,55.50
2018-05-27T07:38:06.926Z,54.00
2018-05-27T07:39:06.109Z,54.10
2018-05-27T07:40:11.343Z,53.90
2018-05-27T07:41:06.408Z,53.20
2018-05-27T07:42:06.261Z,51.80
2018-05-27T07:43:05.963Z,52.20
2018-05-27T07:44:06.099Z,51.90
2018-05-27T07:45:06.008Z,52.10
2018-05-27T07:46:10.826Z,51.70
2018-05-27T07:47:06.404Z,51.70
2018-05-27T07:48:11.198Z,51.70
2018-05-27T07:49:08.322Z,51.90
2018-05-27T07:50:05.793Z,51.90
2018-05-27T07:51:11.802Z,52.00
2018-05-27T07:52:08.981Z,51.10
2018-05-27T07:53:06.182Z,51.10
2018-05-27T07:54:06.428Z,51.50
2018-05-27T07:55:06.095Z,51.20
2018-05-27T07:56:10.724Z,51.00
2018-05-27T07:57:08.248Z,50.00
2018-05-27T07:58:11.017Z,49.90
2018-05-27T07:59:08.202Z,49.20
2018-05-27T08:00:08.269Z,49.00
2018-05-27T08:01:08.246Z,49.30
2018-05-27T08:02:08.279Z,49.60
2018-05-27T08:03:05.832Z,49.60
2018-05-27T08:04:05.668Z,49.20
2018-05-27T08:05:06.292Z,49.10
2018-05-27T08:06:08.546Z,48.90
2018-05-27T08:07:08.626Z,48.40
2018-05-27T08:08:06.472Z,48.40
2018-05-27T08:09:08.631Z,48.50
2018-05-27T08:10:06.301Z,48.50
2018-05-27T08:11:13.623Z,48.30
2018-05-27T08:12:08.666Z,48.90
2018-05-27T08:13:06.126Z,48.80
2018-05-27T08:14:05.750Z,30.00
2018-05-27T08:15:05.649Z,49.30
2018-05-27T08:16:06.617Z,49.20
2018-05-27T08:17:13.832Z,49.70
2018-05-27T08:18:08.835Z,49.50
2018-05-27T08:19:08.855Z,49.60
2018-05-27T08:20:06.963Z,49.60
2018-05-27T08:21:08.512Z,49.70
2018-05-27T08:22:05.923Z,49.70
2018-05-27T08:23:05.704Z,50.00
2018-05-27T08:24:06.685Z,50.40
2018-05-27T08:25:09.298Z,50.90
2018-05-27T08:26:10.984Z,50.90
2018-05-27T08:27:05.934Z,51.20
2018-05-27T08:28:05.675Z,51.20
2018-05-27T08:29:06.489Z,51.40
2018-05-27T08:30:06.085Z,51.70
2018-05-27T08:31:08.293Z,51.90
2018-05-27T08:32:08.177Z,51.60
2018-05-27T08:33:08.298Z,51.60
2018-05-27T08:34:06.263Z,51.60
2018-05-27T08:35:07.587Z,51.40
2018-05-27T08:36:06.198Z,51.40
2018-05-27T08:37:06.041Z,50.20
2018-05-27T08:38:08.206Z,48.70
2018-05-27T08:39:10.752Z,48.70
2018-05-27T08:40:08.875Z,49.00
2018-05-27T08:41:06.810Z,48.90
2018-05-27T08:42:08.928Z,47.70
2018-05-27T08:43:06.632Z,47.70
2018-05-27T08:44:08.748Z,48.10
2018-05-27T08:45:11.328Z,48.10
2018-05-27T08:46:08.371Z,47.50
2018-05-27T08:47:05.859Z,47.50
2018-05-27T08:48:06.021Z,47.90
2018-05-27T08:49:10.763Z,47.60
2018-05-27T08:50:08.636Z,47.40
2018-05-27T08:51:13.714Z,47.50
2018-05-27T08:52:08.704Z,47.20
2018-05-27T08:53:08.810Z,46.40
2018-05-27T08:54:06.331Z,46.40
2018-05-27T08:55:11.072Z,46.60
2018-05-27T08:56:05.793Z,47.10
2018-05-27T08:57:08.185Z,46.00
2018-05-27T08:58:10.747Z,46.60
2018-05-27T08:59:07.409Z,46.60
2018-05-27T09:00:08.500Z,47.20
2018-05-27T09:01:08.620Z,47.00
2018-05-27T09:02:06.620Z,47.00
2018-05-27T09:03:11.312Z,47.00
2018-05-27T09:04:06.219Z,47.00
2018-05-27T09:05:06.072Z,47.40
2018-05-27T09:06:05.936Z,47.70
2018-05-27T09:07:08.136Z,47.30
2018-05-27T09:08:05.997Z,47.40
2018-05-27T09:09:08.239Z,44.60
2018-05-27T09:10:06.291Z,44.60
2018-05-27T09:11:06.059Z,44.30
2018-05-27T09:12:08.354Z,45.20
2018-05-27T09:13:08.517Z,45.50
2018-05-27T09:14:06.558Z,45.40
2018-05-27T09:15:06.429Z,44.90
2018-05-27T09:16:08.525Z,44.10
2018-05-27T09:17:08.657Z,44.80
2018-05-27T09:18:06.315Z,44.80
2018-05-27T09:19:11.040Z,44.80
2018-05-27T09:20:06.586Z,44.70
2018-05-27T09:21:06.292Z,45.00
2018-05-27T09:22:06.260Z,45.00
2018-05-27T09:23:06.318Z,44.70
2018-05-27T09:24:08.569Z,45.40
2018-05-27T09:25:08.775Z,44.00
2018-05-27T09:26:09.252Z,43.70
2018-05-27T09:27:08.337Z,44.00
2018-05-27T09:28:10.846Z,44.00
2018-05-27T09:29:06.403Z,44.20
2018-05-27T09:30:06.455Z,44.20
2018-05-27T09:31:06.635Z,44.50
2018-05-27T09:32:06.376Z,44.70
2018-05-27T09:33:06.100Z,44.20
2018-05-27T09:34:10.893Z,44.60
2018-05-27T09:35:05.937Z,44.60
2018-05-27T09:36:05.697Z,44.80
2018-05-27T09:37:06.275Z,44.40
2018-05-27T09:38:05.930Z,44.10
2018-05-27T09:39:06.237Z,44.50
2018-05-27T09:40:06.124Z,44.00
2018-05-27T09:41:06.492Z,43.50
2018-05-27T09:42:08.591Z,43.10
2018-05-27T09:43:08.997Z,43.30
2018-05-27T09:44:08.196Z,42.60
2018-05-27T09:45:06.371Z,42.60
2018-05-27T09:46:08.569Z,43.10
2018-05-27T09:47:06.230Z,43.20
2018-05-27T09:48:06.450Z,43.00
2018-05-27T09:49:08.771Z,43.00
2018-05-27T09:50:08.810Z,41.80
2018-05-27T09:51:08.987Z,42.20
2018-05-27T09:52:08.656Z,41.00
2018-05-27T09:53:08.775Z,41.60
2018-05-27T09:54:08.884Z,41.00
2018-05-27T09:55:06.432Z,41.00
2018-05-27T09:56:06.333Z,39.90
2018-05-27T09:57:06.419Z,39.90
2018-05-27T09:58:08.663Z,41.20
2018-05-27T09:59:08.748Z,42.10
2018-05-27T10:00:08.744Z,42.20
2018-05-27T10:01:07.885Z,42.20
2018-05-27T10:02:06.924Z,42.80
2018-05-27T10:03:06.036Z,43.20
2018-05-27T10:04:05.758Z,43.40
2018-05-27T10:05:06.389Z,43.30
2018-05-27T10:06:06.147Z,44.00
2018-05-27T10:07:08.427Z,44.40
2018-05-27T10:08:11.028Z,44.40
2018-05-27T10:09:10.158Z,44.40
2018-05-27T10:10:05.819Z,44.30
2018-05-27T10:11:06.776Z,44.40
2018-05-27T10:12:06.600Z,44.80
2018-05-27T10:13:08.744Z,43.90
2018-05-27T10:14:06.501Z,43.90
2018-05-27T10:15:08.788Z,44.70
2018-05-27T10:16:06.577Z,44.70
2018-05-27T10:17:06.346Z,44.60
2018-05-27T10:18:06.549Z,44.70
2018-05-27T10:19:06.136Z,44.70
2018-05-27T10:20:08.331Z,43.30
2018-05-27T10:21:06.386Z,43.30
2018-05-27T10:22:11.221Z,44.50
2018-05-27T10:23:10.721Z,44.60
2018-05-27T10:24:13.775Z,44.70
2018-05-27T10:25:06.352Z,44.70
2018-05-27T10:26:06.640Z,44.40
2018-05-27T10:27:08.967Z,44.40
2018-05-27T10:28:05.996Z,44.40
2018-05-27T10:29:10.621Z,44.60
2018-05-27T10:30:06.531Z,43.80
2018-05-27T10:31:11.337Z,42.70
2018-05-27T10:32:08.431Z,42.20
2018-05-27T10:33:11.111Z,42.20
2018-05-27T10:34:08.163Z,43.00
2018-05-27T10:35:05.832Z,43.00
2018-05-27T10:36:06.400Z,42.80
2018-05-27T10:37:08.731Z,43.60
2018-05-27T10:38:11.452Z,43.50
2018-05-27T10:39:07.341Z,43.50
2018-05-27T10:40:06.054Z,43.70
2018-05-27T10:41:08.447Z,44.20
2018-05-27T10:42:06.052Z,44.30
2018-05-27T10:43:08.307Z,43.60
2018-05-27T10:44:06.178Z,43.50
2018-05-27T10:45:06.127Z,43.80
2018-05-27T10:46:08.323Z,44.20
2018-05-27T10:47:05.820Z,44.20
2018-05-27T10:48:06.040Z,43.70
2018-05-27T10:49:13.384Z,44.20
2018-05-27T10:50:06.037Z,44.20
2018-05-27T10:51:08.313Z,44.50
2018-05-27T10:52:11.167Z,45.10
2018-05-27T10:53:06.181Z,45.00
2018-05-27T10:54:06.267Z,45.10
2018-05-27T10:55:11.127Z,44.90
2018-05-27T10:56:06.713Z,43.70
2018-05-27T10:57:07.493Z,44.00
2018-05-27T10:58:06.520Z,43.60
2018-05-27T10:59:09.054Z,43.40
2018-05-27T11:00:06.029Z,43.40
2018-05-27T11:01:06.027Z,43.60
2018-05-27T11:02:06.437Z,43.10
2018-05-27T11:03:06.270Z,43.00
2018-05-27T11:04:06.324Z,43.60
2018-05-27T11:05:12.215Z,42.90
2018-05-27T11:06:05.789Z,43.10
2018-05-27T11:07:06.968Z,43.70
2018-05-27T11:08:08.740Z,44.70
2018-05-27T11:09:06.483Z,44.70
2018-05-27T11:10:06.181Z,44.80
2018-05-27T11:11:10.711Z,43.30
2018-05-27T11:12:06.373Z,43.30
2018-05-27T11:13:08.576Z,43.00
2018-05-27T11:14:08.323Z,42.60
2018-05-27T11:15:08.454Z,42.60
2018-05-27T11:16:05.959Z,42.60
2018-05-27T11:17:11.445Z,43.70
2018-05-27T11:18:05.955Z,43.70
2018-05-27T11:19:08.349Z,43.30
2018-05-27T11:20:08.991Z,43.80
2018-05-27T11:21:06.130Z,43.80
2018-05-27T11:22:06.253Z,43.70
2018-05-27T11:23:06.193Z,42.40
2018-05-27T11:24:08.342Z,41.90
2018-05-27T11:25:05.912Z,41.90
2018-05-27T11:26:05.642Z,42.20
2018-05-27T11:27:08.796Z,40.90
2018-05-27T11:28:08.843Z,41.80
2018-05-27T11:29:09.018Z,41.40
2018-05-27T11:30:10.840Z,41.50
2018-05-27T11:31:06.543Z,41.60
2018-05-27T11:32:14.019Z,42.00
2018-05-27T11:33:05.570Z,42.00
2018-05-27T11:34:11.258Z,42.20
2018-05-27T11:35:10.950Z,42.00
2018-05-27T11:36:08.702Z,41.60
2018-05-27T11:37:06.302Z,41.70
2018-05-27T11:38:06.677Z,41.00
2018-05-27T11:39:06.299Z,40.30
2018-05-27T11:40:06.288Z,39.80
2018-05-27T11:41:06.247Z,39.80
2018-05-27T11:42:05.572Z,40.20
2018-05-27T11:43:06.385Z,40.20
2018-05-27T11:44:06.999Z,40.40
2018-05-27T11:45:08.097Z,40.40
2018-05-27T11:46:05.654Z,40.30
2018-05-27T11:47:08.902Z,40.40
2018-05-27T11:48:06.611Z,40.40
2018-05-27T11:49:06.242Z,39.90
2018-05-27T11:50:06.569Z,40.00
2018-05-27T11:51:06.355Z,39.80
2018-05-27T11:52:06.095Z,40.20
2018-05-27T11:53:06.040Z,40.60
2018-05-27T11:54:06.108Z,40.50
2018-05-27T11:55:10.909Z,40.00
2018-05-27T11:56:10.682Z,40.20
2018-05-27T11:57:08.778Z,41.10
2018-05-27T11:58:11.337Z,40.60
2018-05-27T11:59:05.993Z,40.60
2018-05-27T12:00:05.612Z,40.10
2018-05-27T12:01:05.967Z,39.90
2018-05-27T12:02:10.647Z,40.20
2018-05-27T12:03:06.535Z,39.90
2018-05-27T12:04:11.232Z,39.80
2018-05-27T12:05:11.239Z,39.60
2018-05-27T12:06:06.085Z,39.60
2018-05-27T12:07:05.982Z,39.40
2018-05-27T12:08:11.240Z,39.20
2018-05-27T12:09:06.797Z,39.10
2018-05-27T12:10:08.121Z,38.90
2018-05-27T12:11:10.654Z,39.00
2018-05-27T12:12:08.629Z,39.80
2018-05-27T12:13:06.123Z,39.90
2018-05-27T12:14:06.065Z,39.70
2018-05-27T12:15:05.786Z,39.70
2018-05-27T12:16:08.992Z,40.10
2018-05-27T12:17:05.640Z,40.10
2018-05-27T12:18:11.430Z,40.50
2018-05-27T12:19:06.366Z,40.50
2018-05-27T12:20:06.742Z,40.60
2018-05-27T12:21:07.218Z,41.10
2018-05-27T12:22:05.696Z,41.30
2018-05-27T12:23:06.674Z,41.20
2018-05-27T12:24:08.936Z,42.00
2018-05-27T12:25:08.191Z,42.20
2018-05-27T12:26:08.550Z,42.20
2018-05-27T12:27:06.599Z,42.30
2018-05-27T12:28:06.191Z,42.30
2018-05-27T12:29:08.459Z,42.80
2018-05-27T12:30:06.705Z,42.80
2018-05-27T12:31:06.449Z,43.00
2018-05-27T12:32:06.057Z,43.10
2018-05-27T12:33:11.271Z,43.40
2018-05-27T12:34:08.457Z,43.60
2018-05-27T12:35:11.229Z,43.20
2018-05-27T12:36:05.807Z,43.20
2018-05-27T12:37:06.620Z,43.40
2018-05-27T12:38:06.367Z,43.50
2018-05-27T12:39:05.564Z,43.60
2018-05-27T12:40:05.572Z,43.70
2018-05-27T12:41:08.740Z,43.90
2018-05-27T12:42:06.737Z,43.90
2018-05-27T12:43:06.180Z,44.00
2018-05-27T12:44:06.287Z,44.00
2018-05-27T12:45:08.587Z,44.30
2018-05-27T12:46:06.782Z,44.30
2018-05-27T12:47:05.922Z,44.30
2018-05-27T12:48:05.562Z,44.50
2018-05-27T12:49:08.742Z,44.90
2018-05-27T12:50:11.393Z,44.90
2018-05-27T12:51:11.013Z,45.10
2018-05-27T12:52:08.834Z,45.20